Avon Lake, Iowa
Current Conditions -  °F | °C
As of 6:54 PM on Wednesday 22 Oct 2014 (Local Time) from KDSM Reporting Station
Broken Clouds Broken Clouds  
Wind Chill: 62°   Ceiling: 6000
Heat Index: 62°   Visibility: 10mi
Dew Point: 46°   Wind: 15mph
Humidity: 56%   Direction: 150°SSE
Pressure: 30.12"   Gusts: NA
Location:  41.4707°N, 93.4797°W
Report Text: KDSM 222354Z 15013KT 10SM FEW048 BKN060 BKN250 17/08 A3012 RMK AO2 SLP200 60000 T01670078 10194 20150 53000
Loading
Personal Weather Stations






























Interactive Weather Map
Tropical Storm Tracking
New forecast layout! Learn more

10-Day Weather Forecast

Advertisements
Track Severe Weather on mobile